Time;durP1;ratioP1;P1;durP2;ratioP2;P2;SDS_P1;SDS_P2;PMS_P1;PMS_P2;Temp;Humidity;BMP_temperature;BMP_pressure;BME280_temperature;BME280_humidity;BME280_pressure;Samples;Min_cycle;Max_cycle;Signal;HPM_P1;HPM_P2
2023/07/27 00:00:11;;;;;;;0.10;0.10;;;;;;;14.10;100.00;98787.66;5115290;28;20268;-56
2023/07/27 00:03:03;;;;;;;0.10;0.10;;;;;;;14.08;100.00;98786.06;5114511;28;20205;-56
2023/07/27 00:05:52;;;;;;;0.10;0.10;;;;;;;14.01;100.00;98789.25;5114888;28;20264;-56
2023/07/27 00:08:46;;;;;;;0.10;0.10;;;;;;;14.11;100.00;98780.50;5114097;28;20202;-56
2023/07/27 00:11:33;;;;;;;0.10;0.10;;;;;;;14.32;100.00;98773.34;5115412;28;20205;-56
2023/07/27 00:14:24;;;;;;;0.10;0.10;;;;;;;14.20;100.00;98780.56;5114168;28;20676;-56
2023/07/27 00:17:12;;;;;;;0.10;0.10;;;;;;;14.02;100.00;98776.78;5114152;28;20206;-56
2023/07/27 00:20:05;;;;;;;0.10;0.10;;;;;;;14.14;100.00;98775.75;5115427;28;20190;-56
2023/07/27 00:22:55;;;;;;;0.10;0.10;;;;;;;14.31;100.00;98780.50;5115455;28;20232;-57
2023/07/27 00:25:46;;;;;;;0.13;0.13;;;;;;;14.37;100.00;98771.09;5114958;28;20213;-56
2023/07/27 00:28:37;;;;;;;0.10;0.10;;;;;;;14.29;100.00;98769.13;5114648;28;20190;-56
2023/07/27 00:31:27;;;;;;;0.10;0.10;;;;;;;14.12;100.00;98760.88;5115115;28;20669;-56
2023/07/27 00:34:17;;;;;;;0.20;0.20;;;;;;;14.16;100.00;98767.63;5113519;28;20222;-56
2023/07/27 00:37:07;;;;;;;0.10;0.10;;;;;;;14.07;100.00;98765.72;5113568;28;20217;-57
2023/07/27 00:39:57;;;;;;;0.10;0.10;;;;;;;14.06;100.00;98758.72;5113693;28;20221;-56
2023/07/27 00:42:47;;;;;;;0.10;0.10;;;;;;;14.04;100.00;98769.50;5114747;28;20214;-56
2023/07/27 00:45:37;;;;;;;0.10;0.10;;;;;;;14.11;100.00;98759.19;5113584;28;20707;-56
2023/07/27 00:48:28;;;;;;;0.13;0.13;;;;;;;14.09;100.00;98762.00;5115029;28;20267;-56
2023/07/27 00:51:19;;;;;;;0.20;0.20;;;;;;;14.16;100.00;98757.81;5107058;28;20206;-56
2023/07/27 00:54:12;;;;;;;0.10;0.10;;;;;;;14.19;100.00;98752.25;5101938;28;20237;-56
2023/07/27 00:57:04;;;;;;;0.10;0.10;;;;;;;14.21;100.00;98749.44;5103986;28;20265;-56
2023/07/27 00:59:58;;;;;;;0.20;0.20;;;;;;;14.21;100.00;98752.94;5102600;28;20700;-56
2023/07/27 01:02:47;;;;;;;0.10;0.10;;;;;;;14.23;100.00;98747.47;5101548;28;20729;-56
2023/07/27 01:05:39;;;;;;;0.17;0.17;;;;;;;14.26;100.00;98740.06;5102820;28;20211;-56
2023/07/27 01:08:29;;;;;;;0.10;0.10;;;;;;;14.10;100.00;98742.38;5101355;28;20198;-56
2023/07/27 01:11:23;;;;;;;0.10;0.10;;;;;;;14.28;100.00;98726.59;5104173;28;20202;-57
2023/07/27 01:14:24;;;;;;;0.10;0.10;;;;;;;14.44;100.00;98737.63;5101944;28;20190;-56
2023/07/27 01:17:25;;;;;;;0.10;0.10;;;;;;;14.32;100.00;98722.72;5103215;28;20268;-56
2023/07/27 01:20:23;;;;;;;0.10;0.10;;;;;;;14.35;100.00;98721.59;5102003;28;20288;-56
2023/07/27 01:23:51;;;;;;;0.10;0.10;;;;;;;14.30;100.00;98714.03;5101170;28;20266;-56
2023/07/27 01:27:01;;;;;;;0.17;0.17;;;;;;;14.35;100.00;98713.59;5103407;28;20194;-56
2023/07/27 01:30:09;;;;;;;0.10;0.10;;;;;;;14.36;100.00;98705.47;5100032;28;20199;-56
2023/07/27 01:33:05;;;;;;;0.10;0.10;;;;;;;14.29;100.00;98702.53;5103478;28;20186;-57
2023/07/27 01:36:09;;;;;;;0.10;0.10;;;;;;;14.41;100.00;98702.44;5113004;28;20251;-56
2023/07/27 01:39:03;;;;;;;0.10;0.10;;;;;;;14.33;100.00;98698.59;5112527;28;20192;-56
2023/07/27 01:41:54;;;;;;;0.10;0.10;;;;;;;14.33;100.00;98695.09;5112487;28;20213;-56
2023/07/27 01:44:49;;;;;;;0.10;0.10;;;;;;;14.36;100.00;98696.63;5113630;28;20264;-56
2023/07/27 01:47:40;;;;;;;0.10;0.10;;;;;;;14.30;100.00;98688.22;5113437;28;20214;-56
2023/07/27 01:50:34;;;;;;;0.10;0.10;;;;;;;14.24;100.00;98693.22;5113059;28;20190;-56
2023/07/27 01:53:27;;;;;;;0.10;0.10;;;;;;;14.38;100.00;98684.03;5112249;28;20190;-56
2023/07/27 01:56:16;;;;;;;0.10;0.10;;;;;;;14.39;100.00;98681.25;5112147;28;20260;-57
2023/07/27 01:59:07;;;;;;;0.20;0.20;;;;;;;14.42;100.00;98680.97;5113304;28;20313;-56
2023/07/27 02:01:59;;;;;;;0.20;0.20;;;;;;;14.52;100.00;98684.56;5112401;28;20194;-57
2023/07/27 02:04:53;;;;;;;0.10;0.10;;;;;;;14.48;100.00;98684.97;5113029;28;20324;-57
2023/07/27 02:07:48;;;;;;;0.10;0.10;;;;;;;14.59;100.00;98683.03;5113324;28;20202;-57
2023/07/27 02:10:41;;;;;;;0.10;0.10;;;;;;;14.63;100.00;98678.28;5112006;28;20231;-56
2023/07/27 02:13:34;;;;;;;0.10;0.10;;;;;;;14.51;100.00;98669.53;5112036;28;20210;-57
2023/07/27 02:16:32;;;;;;;0.10;0.10;;;;;;;14.48;100.00;98666.31;5112185;28;20194;-56
2023/07/27 02:19:28;;;;;;;0.10;0.10;;;;;;;14.69;100.00;98660.91;5112617;28;20193;-56
2023/07/27 02:22:17;;;;;;;0.10;0.10;;;;;;;14.56;100.00;98664.63;5112975;28;20255;-56
2023/07/27 02:25:08;;;;;;;0.10;0.10;;;;;;;14.45;100.00;98658.56;5110357;28;20210;-56
2023/07/27 02:27:57;;;;;;;0.10;0.10;;;;;;;14.39;100.00;98657.28;5111675;28;20321;-56
2023/07/27 02:30:48;;;;;;;0.07;0.07;;;;;;;14.48;100.00;98650.31;5112755;28;20281;-56
2023/07/27 02:33:37;;;;;;;0.10;0.10;;;;;;;14.29;100.00;98651.91;5112393;28;20269;-57
2023/07/27 02:36:25;;;;;;;0.10;0.10;;;;;;;14.26;100.00;98659.31;5111791;28;20312;-56
2023/07/27 02:39:14;;;;;;;0.10;0.10;;;;;;;14.25;100.00;98650.47;5111533;28;20210;-56
2023/07/27 02:42:03;;;;;;;0.10;0.10;;;;;;;14.38;100.00;98652.94;5111030;28;20189;-56
2023/07/27 02:44:51;;;;;;;0.10;0.10;;;;;;;14.38;100.00;98660.03;5111608;28;20538;-56
2023/07/27 02:47:43;;;;;;;0.10;0.10;;;;;;;14.30;100.00;98652.75;5112573;28;20198;-56
2023/07/27 02:50:31;;;;;;;0.10;0.10;;;;;;;14.18;100.00;98636.00;5111059;28;20577;-56
2023/07/27 02:53:23;;;;;;;0.10;0.10;;;;;;;14.30;100.00;98634.94;5110247;28;20194;-56
2023/07/27 02:56:11;;;;;;;0.10;0.10;;;;;;;14.29;100.00;98637.75;5111313;28;20328;-56
2023/07/27 02:59:05;;;;;;;0.10;0.10;;;;;;;14.32;100.00;98640.13;5111117;28;20198;-56
2023/07/27 03:01:58;;;;;;;0.10;0.10;;;;;;;14.29;100.00;98635.09;5111534;28;20194;-56
2023/07/27 03:04:50;;;;;;;0.10;0.10;;;;;;;14.24;100.00;98638.13;5111153;28;20198;-56
2023/07/27 03:07:37;;;;;;;0.10;0.10;;;;;;;14.36;100.00;98644.19;5112424;28;20182;-56
2023/07/27 03:10:24;;;;;;;0.10;0.10;;;;;;;14.28;100.00;98644.03;5110358;28;20221;-56
2023/07/27 03:13:10;;;;;;;0.10;0.10;;;;;;;14.30;100.00;98639.44;5112332;28;20247;-56
2023/07/27 03:15:59;;;;;;;0.10;0.10;;;;;;;14.26;100.00;98648.66;5111447;28;20239;-56
2023/07/27 03:18:46;;;;;;;0.20;0.20;;;;;;;14.22;100.00;98636.59;5111078;28;20230;-56
2023/07/27 03:21:33;;;;;;;0.10;0.10;;;;;;;14.24;100.00;98640.78;5111128;28;20337;-56
2023/07/27 03:24:20;;;;;;;0.10;0.10;;;;;;;14.40;100.00;98644.78;5109821;28;20202;-56
2023/07/27 03:27:08;;;;;;;0.10;0.10;;;;;;;14.39;100.00;98643.09;5110549;28;20801;-56
2023/07/27 03:29:57;;;;;;;0.10;0.10;;;;;;;14.31;100.00;98643.78;5110914;28;20202;-56
2023/07/27 03:32:45;;;;;;;0.10;0.10;;;;;;;14.29;100.00;98638.59;5111868;28;20376;-56
2023/07/27 03:35:32;;;;;;;0.10;0.10;;;;;;;14.30;100.00;98639.44;5111693;28;20237;-56
2023/07/27 03:38:19;;;;;;;0.10;0.10;;;;;;;14.45;100.00;98639.91;5109708;28;20194;-56
2023/07/27 03:41:06;;;;;;;0.10;0.10;;;;;;;14.44;100.00;98639.03;5110663;28;20811;-56
2023/07/27 03:43:54;;;;;;;0.10;0.10;;;;;;;14.47;100.00;98630.81;5111169;28;20201;-56
2023/07/27 03:46:41;;;;;;;0.10;0.10;;;;;;;14.40;100.00;98634.13;5110659;28;20218;-57
2023/07/27 03:49:30;;;;;;;0.03;0.03;;;;;;;14.57;100.00;98631.69;5110527;28;20202;-56
2023/07/27 03:52:18;;;;;;;0.00;0.00;;;;;;;14.43;100.00;98625.84;5111078;28;20203;-56
2023/07/27 03:55:05;;;;;;;0.10;0.10;;;;;;;14.52;100.00;98617.09;5109177;28;20202;-57
2023/07/27 03:57:52;;;;;;;0.10;0.10;;;;;;;14.40;100.00;98615.47;5110936;28;20206;-56
2023/07/27 04:00:39;;;;;;;0.10;0.10;;;;;;;14.38;100.00;98612.97;5110822;28;20197;-56
2023/07/27 04:03:26;;;;;;;0.10;0.10;;;;;;;14.38;100.00;98618.28;5110435;28;20260;-56
2023/07/27 04:06:14;;;;;;;0.10;0.10;;;;;;;14.40;100.00;98612.81;5111765;28;20209;-56
2023/07/27 04:09:01;;;;;;;0.10;0.10;;;;;;;14.37;100.00;98615.72;5110381;28;20765;-56
2023/07/27 04:11:48;;;;;;;0.10;0.10;;;;;;;14.49;100.00;98602.22;5112416;28;20203;-56
2023/07/27 04:14:35;;;;;;;0.10;0.10;;;;;;;14.53;100.00;98608.94;5114468;28;20248;-56
2023/07/27 04:17:22;;;;;;;0.10;0.10;;;;;;;14.63;100.00;98606.31;5115206;28;20191;-56
2023/07/27 04:20:10;;;;;;;0.10;0.10;;;;;;;14.49;100.00;98599.56;5114156;28;20315;-56
2023/07/27 04:22:58;;;;;;;0.10;0.10;;;;;;;14.64;100.00;98607.16;5114419;28;20317;-56
2023/07/27 04:25:45;;;;;;;0.10;0.10;;;;;;;14.62;100.00;98603.78;5113752;28;20198;-56
2023/07/27 04:28:32;;;;;;;0.10;0.10;;;;;;;14.69;100.00;98608.44;5114037;28;20202;-56
2023/07/27 04:31:19;;;;;;;0.10;0.10;;;;;;;14.60;100.00;98604.75;5114113;28;20206;-56
2023/07/27 04:34:06;;;;;;;0.10;0.10;;;;;;;14.52;100.00;98611.75;5114890;28;20226;-56
2023/07/27 04:36:53;;;;;;;0.10;0.10;;;;;;;14.62;100.00;98609.94;5113749;28;20228;-56
2023/07/27 04:39:42;;;;;;;0.10;0.10;;;;;;;14.60;100.00;98611.91;5113284;28;20190;-56
2023/07/27 04:42:28;;;;;;;0.10;0.10;;;;;;;14.50;100.00;98608.38;5114956;28;20197;-56
2023/07/27 04:45:15;;;;;;;0.10;0.10;;;;;;;14.35;100.00;98610.53;5114541;28;20268;-56
2023/07/27 04:48:03;;;;;;;0.10;0.10;;;;;;;14.47;100.00;98606.81;5114289;28;20225;-57
2023/07/27 04:50:50;;;;;;;0.10;0.10;;;;;;;14.54;100.00;98604.47;5114796;28;20187;-56
2023/07/27 04:53:40;;;;;;;0.10;0.10;;;;;;;14.68;100.00;98608.56;5113268;28;20232;-57
2023/07/27 04:56:29;;;;;;;0.07;0.07;;;;;;;14.56;100.00;98606.00;5113620;28;20198;-57
2023/07/27 04:59:16;;;;;;;0.10;0.10;;;;;;;14.46;100.00;98618.47;5114630;28;20187;-57
2023/07/27 05:02:02;;;;;;;0.10;0.10;;;;;;;14.35;100.00;98621.19;5113235;28;20297;-57
2023/07/27 05:04:50;;;;;;;0.10;0.10;;;;;;;14.37;100.00;98616.56;5114406;28;20281;-57
2023/07/27 05:07:37;;;;;;;0.10;0.10;;;;;;;14.30;100.00;98621.63;5114208;28;20218;-57
2023/07/27 05:10:24;;;;;;;0.10;0.10;;;;;;;14.24;100.00;98630.13;5112615;28;20217;-57
2023/07/27 05:13:13;;;;;;;0.10;0.10;;;;;;;14.24;100.00;98619.47;5114349;28;20460;-57
2023/07/27 05:15:59;;;;;;;0.10;0.10;;;;;;;14.07;100.00;98628.09;5114290;28;20300;-57
2023/07/27 05:18:46;;;;;;;0.10;0.10;;;;;;;14.14;100.00;98620.44;5114146;28;20198;-57
2023/07/27 05:21:33;;;;;;;0.10;0.10;;;;;;;14.17;100.00;98626.31;5114205;28;20185;-57
2023/07/27 05:24:21;;;;;;;0.10;0.10;;;;;;;14.08;100.00;98632.44;5111758;28;20248;-57
2023/07/27 05:27:07;;;;;;;0.10;0.10;;;;;;;14.06;100.00;98626.41;5113262;28;20217;-57
2023/07/27 05:29:56;;;;;;;0.10;0.10;;;;;;;14.12;100.00;98631.22;5113989;28;20189;-57
2023/07/27 05:32:42;;;;;;;0.10;0.10;;;;;;;14.04;100.00;98634.53;5112779;28;20668;-57
2023/07/27 05:35:29;;;;;;;0.10;0.10;;;;;;;14.13;100.00;98635.56;5113537;28;20290;-57
2023/07/27 05:38:18;;;;;;;0.20;0.20;;;;;;;14.12;100.00;98630.38;5112425;28;20194;-57
2023/07/27 05:41:04;;;;;;;0.10;0.10;;;;;;;14.08;100.00;98636.94;5113285;28;20198;-57
2023/07/27 05:43:51;;;;;;;0.10;0.10;;;;;;;14.26;100.00;98643.31;5113838;28;20202;-57
2023/07/27 05:46:40;;;;;;;0.10;0.10;;;;;;;14.10;100.00;98625.19;5112871;28;20217;-57
2023/07/27 05:49:27;;;;;;;0.10;0.10;;;;;;;14.26;100.00;98636.16;5113508;28;20206;-57
2023/07/27 05:52:14;;;;;;;0.10;0.10;;;;;;;14.56;100.00;98635.31;5113677;28;20194;-57
2023/07/27 05:55:01;;;;;;;0.10;0.10;;;;;;;14.51;100.00;98626.06;5111834;28;20187;-57
2023/07/27 05:57:48;;;;;;;0.10;0.10;;;;;;;14.42;100.00;98621.50;5113543;28;20281;-57
2023/07/27 06:00:36;;;;;;;0.10;0.10;;;;;;;14.58;100.00;98611.22;5113219;28;20410;-58
2023/07/27 06:03:24;;;;;;;0.10;0.10;;;;;;;14.65;100.00;98612.34;5113431;28;20257;-57
2023/07/27 06:06:11;;;;;;;0.10;0.10;;;;;;;14.56;100.00;98613.16;5113340;28;20216;-57
2023/07/27 06:08:59;;;;;;;0.10;0.10;;;;;;;14.66;100.00;98608.69;5111422;28;20185;-57
2023/07/27 06:11:46;;;;;;;0.10;0.10;;;;;;;14.75;100.00;98615.00;5113246;28;20240;-58
2023/07/27 06:14:33;;;;;;;0.10;0.10;;;;;;;14.73;100.00;98614.31;5113096;28;20321;-57
2023/07/27 06:17:20;;;;;;;0.10;0.10;;;;;;;14.74;100.00;98605.34;5112666;28;20194;-57
2023/07/27 06:20:10;;;;;;;0.10;0.10;;;;;;;14.75;100.00;98599.84;5113106;28;20189;-57
2023/07/27 06:22:57;;;;;;;0.10;0.10;;;;;;;14.48;100.00;98600.53;5112658;28;20216;-57
2023/07/27 06:25:44;;;;;;;0.10;0.10;;;;;;;14.44;100.00;98608.88;5113001;28;20198;-57
2023/07/27 06:28:31;;;;;;;0.10;0.10;;;;;;;14.57;100.00;98591.72;5112700;28;20296;-57
2023/07/27 06:31:18;;;;;;;0.20;0.20;;;;;;;14.49;100.00;98596.03;5112519;28;20244;-57
2023/07/27 06:34:05;;;;;;;0.10;0.10;;;;;;;14.52;100.00;98596.59;5111801;28;20257;-57
2023/07/27 06:36:54;;;;;;;0.10;0.10;;;;;;;14.54;100.00;98601.78;5113647;28;20264;-57
2023/07/27 06:39:41;;;;;;;0.10;0.10;;;;;;;14.51;100.00;98600.25;5112338;28;20308;-57
2023/07/27 06:42:28;;;;;;;0.10;0.10;;;;;;;14.61;100.00;98602.94;5113594;28;20592;-57
2023/07/27 06:45:15;;;;;;;0.10;0.10;;;;;;;14.54;100.00;98604.47;5113579;28;20326;-57
2023/07/27 06:48:02;;;;;;;0.10;0.10;;;;;;;14.38;100.00;98602.31;5113403;28;20217;-57
2023/07/27 06:50:49;;;;;;;0.10;0.10;;;;;;;14.36;100.00;98606.91;5113589;28;20198;-57
2023/07/27 06:53:37;;;;;;;0.10;0.10;;;;;;;14.27;100.00;98602.38;5112212;28;20224;-57
2023/07/27 06:56:24;;;;;;;0.10;0.10;;;;;;;14.48;100.00;98594.38;5113486;28;20194;-57
2023/07/27 06:59:11;;;;;;;0.10;0.10;;;;;;;14.65;100.00;98598.16;5113502;28;20178;-57
2023/07/27 07:01:58;;;;;;;0.10;0.10;;;;;;;14.62;100.00;98596.63;5113417;28;20236;-57
2023/07/27 07:04:46;;;;;;;0.10;0.10;;;;;;;14.78;100.00;98585.44;5113362;28;20566;-57
2023/07/27 07:07:33;;;;;;;0.10;0.10;;;;;;;14.77;100.00;98579.25;5113232;28;20206;-57
2023/07/27 07:10:21;;;;;;;0.10;0.10;;;;;;;14.70;100.00;98574.63;5111856;28;20214;-58
2023/07/27 07:13:09;;;;;;;0.10;0.10;;;;;;;14.79;100.00;98584.44;5113202;28;20198;-57
2023/07/27 07:15:56;;;;;;;0.10;0.10;;;;;;;14.76;100.00;98582.88;5113223;28;20198;-57
2023/07/27 07:18:43;;;;;;;0.10;0.10;;;;;;;14.63;100.00;98576.97;5113199;28;20194;-57
2023/07/27 07:21:30;;;;;;;0.10;0.10;;;;;;;14.71;100.00;98568.31;5113173;28;20304;-57
2023/07/27 07:24:18;;;;;;;0.10;0.10;;;;;;;14.87;100.00;98576.59;5111795;28;20190;-57
2023/07/27 07:27:06;;;;;;;0.10;0.10;;;;;;;14.74;100.00;98571.53;5113279;28;20197;-57
2023/07/27 07:29:53;;;;;;;0.10;0.10;;;;;;;14.87;100.00;98568.59;5112834;28;20236;-58
2023/07/27 07:32:40;;;;;;;0.10;0.10;;;;;;;14.82;100.00;98566.34;5113084;28;20210;-57
2023/07/27 07:35:28;;;;;;;0.10;0.10;;;;;;;14.75;100.00;98557.22;5112634;28;20347;-57
2023/07/27 07:38:14;;;;;;;0.10;0.10;;;;;;;14.89;100.00;98547.97;5111519;28;20685;-57
2023/07/27 07:41:01;;;;;;;0.10;0.10;;;;;;;14.76;100.00;98552.72;5113001;28;20696;-57
2023/07/27 07:43:50;;;;;;;0.10;0.10;;;;;;;14.92;100.00;98545.00;5112858;28;20202;-57
2023/07/27 07:46:37;;;;;;;0.10;0.10;;;;;;;15.00;100.00;98555.81;5115254;28;20190;-57
2023/07/27 07:49:25;;;;;;;0.10;0.10;;;;;;;15.06;100.00;98543.75;5116610;28;20340;-57
2023/07/27 07:52:13;;;;;;;0.10;0.10;;;;;;;14.94;100.00;98535.03;5116736;28;20199;-57
2023/07/27 07:55:00;;;;;;;0.10;0.10;;;;;;;15.01;100.00;98522.84;5115395;28;20198;-57
2023/07/27 07:57:47;;;;;;;0.10;0.10;;;;;;;14.96;100.00;98521.56;5116737;28;20182;-57
2023/07/27 08:00:35;;;;;;;0.10;0.10;;;;;;;15.04;100.00;98516.38;5116485;28;20194;-58
2023/07/27 08:03:22;;;;;;;0.10;0.10;;;;;;;15.09;100.00;98506.13;5116422;28;20320;-57
2023/07/27 08:06:12;;;;;;;0.10;0.10;;;;;;;14.97;100.00;98504.59;5116478;28;20320;-57
2023/07/27 08:08:59;;;;;;;0.10;0.10;;;;;;;14.94;100.00;98520.88;5115114;28;20264;-57
2023/07/27 08:11:46;;;;;;;0.10;0.10;;;;;;;14.82;100.00;98518.34;5116262;28;20197;-57
2023/07/27 08:14:33;;;;;;;0.10;0.10;;;;;;;14.69;100.00;98517.81;5114344;28;20226;-57
2023/07/27 08:17:22;;;;;;;0.10;0.10;;;;;;;14.84;100.00;98513.72;5114132;28;20206;-58
2023/07/27 08:20:10;;;;;;;0.10;0.10;;;;;;;14.93;100.00;98519.19;5115359;28;20190;-57
2023/07/27 08:22:57;;;;;;;0.10;0.10;;;;;;;14.95;100.00;98509.22;5114307;28;20312;-57
2023/07/27 08:25:44;;;;;;;0.00;0.00;;;;;;;14.99;100.00;98503.47;5114956;28;20233;-57
2023/07/27 08:28:31;;;;;;;0.10;0.10;;;;;;;14.98;100.00;98498.28;5114890;28;20225;-58
2023/07/27 08:31:18;;;;;;;0.10;0.10;;;;;;;15.06;100.00;98485.91;5114591;28;20198;-58
2023/07/27 08:34:07;;;;;;;0.10;0.10;;;;;;;15.27;100.00;98488.41;5115013;28;20230;-57
2023/07/27 08:36:54;;;;;;;0.10;0.10;;;;;;;15.22;100.00;98479.13;5114923;28;20194;-57
2023/07/27 08:39:41;;;;;;;0.07;0.07;;;;;;;15.17;100.00;98479.59;5113357;28;20222;-58
2023/07/27 08:42:31;;;;;;;0.10;0.10;;;;;;;15.01;100.00;98474.81;5115041;28;20243;-58
2023/07/27 08:45:21;;;;;;;0.10;0.10;;;;;;;15.07;100.00;98476.94;5114651;28;20198;-57
2023/07/27 08:48:09;;;;;;;0.10;0.10;;;;;;;14.98;100.00;98472.44;5114416;28;20206;-58
2023/07/27 08:51:00;;;;;;;0.10;0.10;;;;;;;14.93;100.00;98469.34;5115035;28;20194;-58
2023/07/27 08:53:46;;;;;;;0.10;0.10;;;;;;;14.92;100.00;98472.16;5113101;28;20648;-58
2023/07/27 08:56:33;;;;;;;0.10;0.10;;;;;;;14.89;100.00;98482.16;5114436;28;20193;-57
2023/07/27 08:59:20;;;;;;;0.10;0.10;;;;;;;14.94;100.00;98481.72;5114576;28;20264;-58
2023/07/27 09:02:07;;;;;;;0.10;0.10;;;;;;;14.96;100.00;98489.56;5115326;28;20243;-58
2023/07/27 09:04:54;;;;;;;0.10;0.10;;;;;;;14.97;100.00;98492.09;5115334;28;20320;-58
2023/07/27 09:07:42;;;;;;;0.10;0.10;;;;;;;14.98;100.00;98495.63;5115223;28;20190;-58
2023/07/27 09:10:29;;;;;;;0.10;0.10;;;;;;;15.04;100.00;98493.19;5115085;28;20321;-58
2023/07/27 09:13:16;;;;;;;0.10;0.10;;;;;;;15.10;100.00;98489.13;5115234;28;20317;-58
2023/07/27 09:16:05;;;;;;;0.10;0.10;;;;;;;15.07;100.00;98495.59;5115258;28;20194;-58
2023/07/27 09:18:52;;;;;;;0.10;0.10;;;;;;;14.98;100.00;98487.63;5115188;28;20672;-58
2023/07/27 09:21:40;;;;;;;0.10;0.10;;;;;;;14.97;100.00;98485.94;5114955;28;20194;-58
2023/07/27 09:24:31;;;;;;;0.10;0.10;;;;;;;15.02;100.00;98481.84;5113629;28;20190;-58
2023/07/27 09:27:18;;;;;;;0.10;0.10;;;;;;;14.96;100.00;98473.56;5114857;28;20194;-58
2023/07/27 09:30:06;;;;;;;0.10;0.10;;;;;;;14.97;100.00;98484.09;5114558;28;20214;-58
2023/07/27 09:32:54;;;;;;;0.10;0.10;;;;;;;15.02;100.00;98481.00;5114769;28;20313;-58
2023/07/27 09:35:40;;;;;;;0.10;0.10;;;;;;;15.04;100.00;98474.53;5114343;28;20226;-58
2023/07/27 09:38:29;;;;;;;0.10;0.10;;;;;;;15.31;100.00;98483.59;5113390;28;20271;-58
2023/07/27 09:41:17;;;;;;;0.10;0.10;;;;;;;15.28;100.00;98467.91;5114760;28;20194;-58
2023/07/27 09:44:04;;;;;;;0.10;0.10;;;;;;;15.17;100.00;98461.75;5114706;28;20194;-58
2023/07/27 09:46:51;;;;;;;0.10;0.10;;;;;;;15.20;100.00;98467.78;5114761;28;20202;-58
2023/07/27 09:49:39;;;;;;;0.10;0.10;;;;;;;15.25;100.00;98474.38;5114243;28;20209;-58
2023/07/27 09:52:27;;;;;;;0.10;0.10;;;;;;;15.27;100.00;98475.06;5114522;28;20609;-58
2023/07/27 09:55:14;;;;;;;0.10;0.10;;;;;;;15.35;100.00;98469.84;5113107;28;20685;-58
2023/07/27 09:58:05;;;;;;;0.10;0.10;;;;;;;15.44;100.00;98460.97;5114284;28;20190;-58
2023/07/27 10:00:52;;;;;;;0.10;0.10;;;;;;;15.48;100.00;98455.31;5114291;28;20194;-58
2023/07/27 10:03:39;;;;;;;0.10;0.10;;;;;;;15.58;100.00;98467.66;5114000;28;20664;-58
2023/07/27 10:06:27;;;;;;;0.10;0.10;;;;;;;15.45;100.00;98470.66;5114005;28;20240;-58
2023/07/27 10:09:20;;;;;;;0.10;0.10;;;;;;;15.38;100.00;98469.53;5112647;28;20328;-58
2023/07/27 10:12:07;;;;;;;0.10;0.10;;;;;;;15.35;100.00;98464.50;5109395;28;20194;-58
2023/07/27 10:15:25;;;;;;;0.10;0.10;;;;;;;15.37;100.00;98470.53;5108511;28;20194;-58
2023/07/27 10:18:15;;;;;;;0.10;0.10;;;;;;;15.40;100.00;98480.06;5108845;28;20541;-58
2023/07/27 10:21:23;;;;;;;0.10;0.10;;;;;;;15.43;100.00;98469.94;5108930;28;20206;-58
2023/07/27 10:24:10;;;;;;;0.10;0.10;;;;;;;15.33;100.00;98469.13;5106978;28;20197;-58
2023/07/27 10:27:04;;;;;;;0.10;0.10;;;;;;;15.42;100.00;98470.91;5108777;28;20268;-58
2023/07/27 10:29:53;;;;;;;0.10;0.10;;;;;;;15.53;100.00;98466.38;5108369;28;20295;-58
2023/07/27 10:33:08;;;;;;;0.10;0.10;;;;;;;15.55;100.00;98470.63;5108428;28;20431;-58
2023/07/27 10:36:02;;;;;;;0.10;0.10;;;;;;;15.67;100.00;98466.78;5108277;28;20255;-58
2023/07/27 10:38:53;;;;;;;0.10;0.10;;;;;;;15.58;100.00;98469.47;5107535;28;20324;-58
2023/07/27 10:41:58;;;;;;;0.10;0.10;;;;;;;15.72;100.00;98474.34;5108121;28;20621;-58
2023/07/27 10:44:47;;;;;;;0.10;0.10;;;;;;;15.90;100.00;98459.22;5108708;28;20629;-59
2023/07/27 10:47:37;;;;;;;0.10;0.10;;;;;;;16.02;100.00;98467.91;5113476;28;20210;-59
2023/07/27 10:50:25;;;;;;;0.10;0.10;;;;;;;16.06;100.00;98471.09;5113079;28;20222;-58
2023/07/27 10:53:13;;;;;;;0.10;0.10;;;;;;;16.03;100.00;98466.91;5112103;28;20191;-58
2023/07/27 10:56:00;;;;;;;0.10;0.10;;;;;;;15.82;100.00;98466.28;5113405;28;20190;-58
2023/07/27 10:58:50;;;;;;;0.10;0.10;;;;;;;15.97;100.00;98467.50;5113479;28;20664;-58
2023/07/27 11:01:36;;;;;;;0.10;0.10;;;;;;;15.82;100.00;98467.13;5113290;28;20281;-58
2023/07/27 11:04:24;;;;;;;0.10;0.10;;;;;;;15.85;100.00;98469.53;5113295;28;20297;-58
2023/07/27 11:07:14;;;;;;;0.10;0.10;;;;;;;15.70;100.00;98462.97;5113119;28;20234;-59
2023/07/27 11:10:04;;;;;;;0.10;0.10;;;;;;;15.66;100.00;98462.44;5110951;28;20283;-59
2023/07/27 11:12:52;;;;;;;0.10;0.10;;;;;;;15.64;100.00;98469.78;5113365;28;20194;-59
2023/07/27 11:15:39;;;;;;;0.10;0.10;;;;;;;15.68;100.00;98454.28;5113307;28;20193;-58
2023/07/27 11:18:30;;;;;;;0.10;0.10;;;;;;;15.83;100.00;98460.00;5113168;28;20659;-59
2023/07/27 11:21:16;;;;;;;0.10;0.10;;;;;;;15.80;100.00;98449.59;5115138;28;20190;-58
2023/07/27 11:24:07;;;;;;;0.10;0.10;;;;;;;15.70;100.00;98455.81;5115054;28;20194;-59
2023/07/27 11:26:54;;;;;;;0.10;0.10;;;;;;;15.61;100.00;98446.00;5117000;28;20255;-58
2023/07/27 11:29:45;;;;;;;0.10;0.10;;;;;;;15.62;100.00;98445.03;5117294;28;20226;-58
2023/07/27 11:32:32;;;;;;;0.10;0.10;;;;;;;15.61;100.00;98453.19;5117112;28;20202;-59
2023/07/27 11:35:19;;;;;;;0.10;0.10;;;;;;;15.67;100.00;98445.44;5116766;28;20227;-58
2023/07/27 11:38:06;;;;;;;0.10;0.10;;;;;;;15.72;100.00;98445.81;5115743;28;20193;-58
2023/07/27 11:40:57;;;;;;;0.10;0.10;;;;;;;15.70;100.00;98446.97;5117116;28;20735;-59
2023/07/27 11:44:05;;;;;;;0.10;0.10;;;;;;;15.65;100.00;98438.56;5116968;28;20190;-58
2023/07/27 11:46:55;;;;;;;0.00;0.00;;;;;;;15.65;100.00;98442.09;5116987;28;20673;-58
2023/07/27 11:49:43;;;;;;;0.10;0.10;;;;;;;15.64;100.00;98442.22;5115647;28;20233;-58
2023/07/27 11:52:30;;;;;;;0.10;0.10;;;;;;;15.74;100.00;98443.88;5116744;28;20194;-58
2023/07/27 11:55:17;;;;;;;0.10;0.10;;;;;;;15.68;100.00;98435.59;5116164;28;20198;-58
2023/07/27 11:58:11;;;;;;;0.10;0.10;;;;;;;15.73;100.00;98430.66;5116650;28;20210;-59
2023/07/27 12:00:58;;;;;;;0.10;0.10;;;;;;;15.84;100.00;98429.63;5116722;28;20190;-59
2023/07/27 12:03:45;;;;;;;0.10;0.10;;;;;;;15.89;100.00;98441.53;5115606;28;20213;-58
2023/07/27 12:06:32;;;;;;;0.10;0.10;;;;;;;15.86;100.00;98447.16;5116532;28;20259;-58
2023/07/27 12:09:20;;;;;;;0.10;0.10;;;;;;;15.85;100.00;98452.66;5115202;28;20205;-58
2023/07/27 12:12:09;;;;;;;0.10;0.10;;;;;;;16.00;100.00;98449.31;5116381;28;20260;-58
2023/07/27 12:14:58;;;;;;;0.10;0.10;;;;;;;15.97;100.00;98451.47;5116333;28;20202;-58
2023/07/27 12:17:52;;;;;;;0.10;0.10;;;;;;;16.11;100.00;98448.25;5116220;28;20194;-58
2023/07/27 12:20:40;;;;;;;0.10;0.10;;;;;;;16.10;100.00;98448.41;5115994;28;20320;-58
2023/07/27 12:23:29;;;;;;;0.10;0.10;;;;;;;16.09;100.00;98449.41;5114951;28;20190;-58
2023/07/27 12:26:16;;;;;;;0.10;0.10;;;;;;;16.05;100.00;98454.22;5115970;28;20190;-58
2023/07/27 12:29:05;;;;;;;0.10;0.10;;;;;;;16.12;100.00;98449.13;5116078;28;20194;-58
2023/07/27 12:31:56;;;;;;;0.10;0.10;;;;;;;16.14;100.00;98439.13;5114785;28;20696;-58
2023/07/27 12:34:46;;;;;;;0.10;0.10;;;;;;;16.22;100.00;98450.75;5115696;28;20225;-58
2023/07/27 12:37:36;;;;;;;0.10;0.10;;;;;;;16.21;100.00;98453.53;5116232;28;20190;-58
2023/07/27 12:40:23;;;;;;;0.10;0.10;;;;;;;16.28;100.00;98438.59;5115961;28;20714;-58
2023/07/27 12:43:29;;;;;;;0.10;0.10;;;;;;;16.33;100.00;98440.84;5115844;28;20193;-58
2023/07/27 12:46:16;;;;;;;0.10;0.10;;;;;;;16.30;100.00;98428.59;5115874;28;20210;-58
2023/07/27 12:49:06;;;;;;;0.10;0.10;;;;;;;16.39;100.00;98433.03;5115645;28;20186;-58
2023/07/27 12:51:52;;;;;;;0.10;0.10;;;;;;;16.27;100.00;98432.41;5115368;28;20218;-59
2023/07/27 12:54:39;;;;;;;0.10;0.10;;;;;;;16.34;100.00;98437.16;5114300;28;20238;-58
2023/07/27 12:57:26;;;;;;;0.10;0.10;;;;;;;16.35;100.00;98434.34;5115417;28;20189;-58
2023/07/27 13:00:16;;;;;;;0.10;0.10;;;;;;;16.36;100.00;98433.34;5115544;28;20373;-58
2023/07/27 13:03:02;;;;;;;0.10;0.10;;;;;;;16.44;100.00;98441.44;5115367;28;20244;-58
2023/07/27 13:05:51;;;;;;;0.10;0.10;;;;;;;16.45;100.00;98435.09;5115241;28;20198;-58